Kuznetsk, Russia
Current Conditions -  °F | °C
As of 4:00 AM on Tuesday 27 Jan 2015 (Local Time) from UWLW Reporting Station
Broken Clouds Broken Clouds  
Wind Chill: -21°   Ceiling: 20000
Heat Index: -2°   Visibility: 3mi
Dew Point: -9°   Wind: 13mph
Humidity: 71%   Direction: 180°S
Pressure: 30.56"   Gusts: NA
Location:  53.12°N, 46.6°E
Report Text: UWLW 270100Z 18006MPS P5000 BKN200 M19/M23 Q1035 20800250 NOSIGRMK QFE770
Loading
Personal Weather Stations






























Interactive Weather Map New forecast layout! Learn more

10-Day Weather Forecast

Advertisements
Track Severe Weather on mobile